Terminal Aerodrome Forecast
Issued by NWS Louisville, KY

Home | Current Version | Previous Version | Text Only | Print | Product List | Glossary On
Versions: 1 2 3 4 5 6 7 8 9 10 11 12 13 14 15
338
FTUS43 KLMK 131123
TAFSDF
TAF
KSDF 131123Z 1312/1418 33009KT P6SM FEW250
     FM132100 36007KT P6SM SCT250
     FM140300 02004KT P6SM BKN150
     FM141500 12007KT P6SM -SN OVC050=

USA.gov is the U.S. government's official web portal to all federal, state and local government web resources and services.